Toledo, OH

11:08 AM EDT on May 06, 2015 (GMT -0400)
West Toledo | | Change Station
CLOSE
Current Station
Personal Weather Station
Location: Toledo, OH
Elevation: 660 ft
Nearby Weather Stations
Active Advisory: Dense Fog Advisory

Elev 660 ft 41.70 °N, 83.61 °W | Updated 3 minutes ago

Fog
Fog
54.4 °F
Feels Like 54.4 °F
N
1.0
Wind Variable Wind from South
Gusts 1.0 mph

Today
High -- | Low -- °F
--% Chance of Precip.
Yesterday
High -- | Low -- °F
Precip. -- in
6:24 AM 8:37 PM
Waning Gibbous, 94% visible
Pressure 30.26 in
Visibility 0.8 miles
Clouds Overcast 200 ft
Dew Point 53 °F
Humidity 94%
Rainfall 0.00 in
Snow Depth Not available.
UV 2 out of 12
Pollen 6.70 out of 12
Air Quality Not available.
Flu Activity Regional
SPECI KTDZ 061501Z AUTO 07007KT 3/4SM BR OVC002 12/11 A3026 RMK AO2 T01220111 TSNO

More Conditions Fewer Conditions

Pressure 30.26 in
Visibility 0.8 miles
Clouds Overcast 200 ft
Dew Point 53 °F
Humidity 94%
Rainfall 0.00 in
Snow Depth Not available.
UV 2 out of 12
Pollen 6.70 out of 12
Air Quality Not available.
Flu Activity Regional
SPECI KTDZ 061501Z AUTO 07007KT 3/4SM BR OVC002 12/11 A3026 RMK AO2 T01220111 TSNO

More Conditions Fewer Conditions

10-Day Weather Forecast

Almanac

Astronomy

May. 06, 2015 Rise Set
Actual Time
Civil Twilight
Nautical Twilight
Astronomical Twilight
Moon
Length of Visible Light
Length of Day
Tomorrow will be .
, % of the Moon is Illuminated

Today's Extremes

State Highs State Lows

Community

WunderPhotos

Upload Photos

1,818,926 photos uploaded!

WunderBlogs® & News

Nearby

Air Quality

  Air Quality AQ Index Pollutant
Not available.

Snow Depth

Station Depth Elevation

Earthquake Activity

City Distance Mag. Time & Date
Minimum magnitude displayed is 2.5.

Coastal Water Temperatures

Place Temperature

Stations

Nearby Weather Stations

Station Location Temp. Windchill Dew Point Humidity Wind Precip. Elev Updated Type
                   
Dense Fog Advisory
Statement as of 10:38 AM EDT on May 06, 2015

... Dense fog advisory remains in effect until noon EDT today...

* visibilities... widespread less than a quarter mile and near an
eighth of a mile in places.

* Timing... late morning with conditions then rapidly improving
from the south.

* Impacts... poor visibilities will result in hazardous travel
conditions.

Precautionary/preparedness actions...

A dense fog advisory is issued when dense fog will substantially
reduce visibilities... resulting in hazardous driving conditions
in some areas. Motorists are advised to use caution and slow
down... as objects on and near roadways will be seen only at
close range. Stay tuned to weather radio for further details or
updates.